Time;durP1;ratioP1;P1;durP2;ratioP2;P2;SDS_P1;SDS_P2;PMS_P1;PMS_P2;Temp;Humidity;BMP_temperature;BMP_pressure;BME280_temperature;BME280_humidity;BME280_pressure;Samples;Min_cycle;Max_cycle;Signal;HPM_P1;HPM_P2
2022/03/12 00:01:29;;;;;;;18.45;15.80;;;27.00;90.20;;;;;;5063958;28;20335;-40
2022/03/12 00:03:58;;;;;;;16.38;13.80;;;27.00;90.10;;;;;;5063435;28;20021;-41
2022/03/12 00:06:25;;;;;;;14.38;12.10;;;27.00;90.10;;;;;;5063423;28;20052;-38
2022/03/12 00:08:53;;;;;;;19.20;12.63;;;26.90;90.10;;;;;;5063283;28;20075;-37
2022/03/12 00:11:28;;;;;;;14.63;11.20;;;26.90;90.10;;;;;;5063901;28;20293;-39
2022/03/12 00:14:00;;;;;;;14.30;9.93;;;26.90;90.10;;;;;;5063337;28;20045;-37
2022/03/12 00:16:27;;;;;;;10.55;9.05;;;26.90;90.10;;;;;;5063809;28;20021;-40
2022/03/12 00:18:56;;;;;;;13.38;7.85;;;26.90;90.10;;;;;;5065902;28;20229;-37
2022/03/12 00:21:24;;;;;;;13.40;7.88;;;26.90;90.20;;;;;;5067407;28;20029;-40
2022/03/12 00:23:53;;;;;;;12.23;7.70;;;26.90;90.20;;;;;;5066821;28;20352;-39
2022/03/12 00:26:23;;;;;;;13.52;7.95;;;26.90;90.20;;;;;;5066732;28;20043;-39
2022/03/12 00:28:52;;;;;;;11.77;6.55;;;26.90;90.20;;;;;;5067086;28;20042;-42
2022/03/12 00:31:18;;;;;;;8.65;6.00;;;26.90;90.20;;;;;;5067217;28;20095;-40
2022/03/12 00:33:45;;;;;;;14.65;7.72;;;26.90;90.20;;;;;;5066771;28;20017;-39
2022/03/12 00:36:13;;;;;;;13.30;9.18;;;26.90;90.20;;;;;;5067041;28;20033;-49
2022/03/12 00:38:41;;;;;;;13.60;9.05;;;26.90;90.20;;;;;;5066667;28;20024;-41
2022/03/12 00:41:09;;;;;;;12.32;9.00;;;26.90;90.20;;;;;;5067255;28;20029;-42
2022/03/12 00:43:35;;;;;;;11.00;8.55;;;26.90;90.20;;;;;;5066744;28;20092;-37
2022/03/12 00:46:05;;;;;;;10.70;8.02;;;26.80;90.20;;;;;;5067207;28;20246;-37
2022/03/12 00:48:32;;;;;;;11.05;9.88;;;26.90;90.20;;;;;;5066511;28;20348;-40
2022/03/12 00:50:59;;;;;;;9.50;8.57;;;26.90;90.10;;;;;;5066851;28;20243;-43
2022/03/12 00:53:26;;;;;;;11.90;7.22;;;26.80;90.10;;;;;;5066401;28;20064;-40
2022/03/12 00:55:52;;;;;;;8.50;6.20;;;26.80;90.00;;;;;;5066650;28;20048;-40
2022/03/12 00:58:19;;;;;;;13.05;5.97;;;26.80;90.10;;;;;;5066550;28;20036;-39
2022/03/12 01:00:46;;;;;;;16.10;6.53;;;26.80;90.10;;;;;;5066643;28;20067;-38
2022/03/12 01:03:12;;;;;;;10.90;5.50;;;26.80;90.10;;;;;;5066356;28;20024;-42
2022/03/12 01:05:55;;;;;;;10.75;5.28;;;26.80;90.10;;;;;;5066472;28;20041;-41
2022/03/12 01:08:23;;;;;;;7.47;5.00;;;26.80;90.10;;;;;;5065814;28;20040;-41
2022/03/12 01:10:51;;;;;;;8.02;4.72;;;26.80;90.10;;;;;;5065939;28;20035;-39
2022/03/12 01:13:17;;;;;;;12.35;4.70;;;26.80;90.10;;;;;;5066450;28;20035;-41
2022/03/12 01:15:44;;;;;;;8.68;4.25;;;26.80;90.20;;;;;;5066262;28;20024;-41
2022/03/12 01:18:17;;;;;;;8.95;4.13;;;26.80;90.20;;;;;;5066231;28;20028;-42
2022/03/12 01:20:44;;;;;;;6.70;3.42;;;26.80;90.40;;;;;;5066106;28;20025;-41
2022/03/12 01:23:13;;;;;;;10.40;4.05;;;26.80;90.20;;;;;;5065765;28;20325;-42
2022/03/12 01:25:44;;;;;;;8.95;3.70;;;26.80;90.20;;;;;;5066465;28;20035;-39
2022/03/12 01:28:12;;;;;;;7.40;3.45;;;26.80;90.10;;;;;;5047775;28;20037;-46
2022/03/12 01:30:41;;;;;;;13.10;3.92;;;26.80;90.10;;;;;;5066064;28;20029;-42
2022/03/12 01:33:08;;;;;;;7.47;3.70;;;26.80;90.10;;;;;;5065791;28;20037;-40
2022/03/12 01:35:35;;;;;;;6.22;3.30;;;26.80;90.00;;;;;;5066586;28;20056;-39
2022/03/12 01:38:03;;;;;;;9.15;3.45;;;26.80;90.00;;;;;;5065657;28;20044;-42
2022/03/12 01:40:31;;;;;;;6.28;3.22;;;26.80;90.00;;;;;;5065738;28;20029;-44
2022/03/12 01:42:58;;;;;;;7.82;3.50;;;26.80;90.00;;;;;;5065391;28;20033;-48
2022/03/12 01:45:27;;;;;;;3.72;3.00;;;26.80;89.90;;;;;;5065720;28;20078;-47
2022/03/12 01:48:03;;;;;;;5.68;2.40;;;26.80;90.20;;;;;;5047584;28;20029;-39
2022/03/12 01:50:32;;;;;;;7.20;2.60;;;26.80;89.80;;;;;;5065839;28;20056;-40
2022/03/12 01:53:02;;;;;;;5.47;2.90;;;26.80;89.70;;;;;;5047597;28;20041;-41
2022/03/12 01:55:31;;;;;;;17.75;3.10;;;26.80;89.70;;;;;;5065273;28;20021;-38
2022/03/12 01:58:02;;;;;;;6.88;2.80;;;26.80;89.70;;;;;;5064982;28;20100;-45
2022/03/12 02:00:46;;;;;;;6.63;2.42;;;26.80;89.90;;;;;;5065537;28;20163;-41
2022/03/12 02:03:16;;;;;;;7.93;2.60;;;26.80;89.80;;;;;;5065138;28;20033;-46
2022/03/12 02:05:43;;;;;;;6.63;2.30;;;26.80;89.70;;;;;;5065035;28;20056;-41
2022/03/12 02:08:13;;;;;;;5.82;2.30;;;26.80;89.70;;;;;;5064994;28;20037;-39
2022/03/12 02:10:41;;;;;;;9.85;2.30;;;26.80;89.60;;;;;;5065162;28;20028;-40
2022/03/12 02:13:08;;;;;;;5.78;2.30;;;26.80;89.10;;;;;;5064887;28;20087;-40
2022/03/12 02:15:35;;;;;;;6.25;2.13;;;26.80;88.60;;;;;;5065263;28;20293;-43
2022/03/12 02:18:02;;;;;;;7.50;2.35;;;26.80;88.50;;;;;;5064798;28;20085;-40
2022/03/12 02:20:29;;;;;;;6.00;2.00;;;26.70;88.10;;;;;;5065637;28;20320;-42
2022/03/12 02:22:56;;;;;;;7.03;2.20;;;26.70;88.20;;;;;;5065295;28;20047;-43
2022/03/12 02:25:31;;;;;;;6.10;2.00;;;26.70;88.30;;;;;;5065048;28;20033;-48
2022/03/12 02:28:00;;;;;;;9.90;1.95;;;26.70;88.40;;;;;;5064902;28;20088;-41
2022/03/12 02:30:47;;;;;;;6.30;1.98;;;26.70;88.50;;;;;;5064993;28;20041;-41
2022/03/12 02:33:14;;;;;;;4.78;2.00;;;26.70;88.70;;;;;;5064496;28;20021;-42
2022/03/12 02:35:44;;;;;;;6.57;2.22;;;26.70;88.70;;;;;;5064821;28;20090;-46
2022/03/12 02:38:11;;;;;;;4.70;1.95;;;26.70;88.70;;;;;;5064308;28;20024;-40
2022/03/12 02:40:41;;;;;;;6.50;2.13;;;26.70;88.70;;;;;;5063972;28;20035;-42
2022/03/12 02:43:13;;;;;;;6.47;2.15;;;26.70;88.90;;;;;;5046528;28;20024;-43
2022/03/12 02:45:40;;;;;;;8.85;1.90;;;26.70;89.10;;;;;;5064578;28;20300;-39
2022/03/12 02:48:10;;;;;;;8.48;2.40;;;26.70;89.10;;;;;;5064308;28;20032;-38
2022/03/12 02:50:37;;;;;;;7.68;2.22;;;26.70;89.10;;;;;;5064398;28;20035;-38
2022/03/12 02:53:05;;;;;;;7.15;2.35;;;26.70;89.20;;;;;;5064351;28;20040;-39
2022/03/12 02:55:34;;;;;;;12.32;2.70;;;26.70;89.30;;;;;;5064471;28;20169;-39
2022/03/12 02:58:02;;;;;;;9.73;4.60;;;26.70;89.30;;;;;;5063880;28;20094;-40
2022/03/12 03:00:36;;;;;;;12.05;4.38;;;26.70;89.40;;;;;;5064339;28;20243;-40
2022/03/12 03:03:03;;;;;;;12.77;4.57;;;26.70;89.40;;;;;;5063839;28;20037;-38
2022/03/12 03:05:44;;;;;;;24.15;21.73;;;26.70;89.30;;;;;;5064304;28;20131;-40
2022/03/12 03:08:21;;;;;;;14.15;11.05;;;26.70;89.40;;;;;;5063929;28;20333;-39
2022/03/12 03:10:51;;;;;;;16.83;7.40;;;26.70;89.40;;;;;;5064222;28;20068;-42
2022/03/12 03:13:18;;;;;;;38.20;6.63;;;26.70;89.50;;;;;;5063962;28;20035;-40
2022/03/12 03:16:09;;;;;;;17.02;5.25;;;26.70;89.60;;;;;;5063983;28;20045;-40
2022/03/12 03:18:38;;;;;;;9.32;5.05;;;26.70;89.50;;;;;;5064098;28;20045;-38
2022/03/12 03:21:09;;;;;;;12.98;4.07;;;26.70;89.50;;;;;;5063977;28;20070;-38
2022/03/12 03:23:35;;;;;;;11.10;4.07;;;26.70;89.70;;;;;;5063727;28;20028;-39
2022/03/12 03:26:03;;;;;;;10.55;3.92;;;26.70;89.80;;;;;;5064386;28;20047;-38
2022/03/12 03:28:30;;;;;;;12.27;5.80;;;26.70;89.80;;;;;;5063587;28;20029;-40
2022/03/12 03:30:56;;;;;;;18.13;8.18;;;26.70;89.90;;;;;;5064169;28;20031;-41
2022/03/12 03:33:25;;;;;;;12.00;5.20;;;26.70;90.00;;;;;;5063774;28;20078;-45
2022/03/12 03:35:52;;;;;;;8.23;4.55;;;26.60;89.90;;;;;;5064141;28;20088;-39
2022/03/12 03:38:19;;;;;;;8.15;4.25;;;26.60;89.90;;;;;;5063951;28;20024;-40
2022/03/12 03:40:46;;;;;;;7.38;4.30;;;26.60;89.90;;;;;;5063567;28;20325;-40
2022/03/12 03:43:17;;;;;;;10.68;3.95;;;26.60;90.00;;;;;;5063551;28;20056;-40
2022/03/12 03:45:47;;;;;;;10.70;3.63;;;26.60;90.00;;;;;;5065300;28;20116;-43
2022/03/12 03:48:17;;;;;;;11.30;3.70;;;26.60;90.00;;;;;;5063786;28;20017;-40
2022/03/12 03:50:45;;;;;;;11.00;3.60;;;26.60;90.00;;;;;;5064088;28;20045;-39
2022/03/12 03:53:18;;;;;;;8.93;3.20;;;26.60;90.00;;;;;;5067254;28;20070;-38
2022/03/12 03:55:46;;;;;;;7.70;2.90;;;26.60;89.90;;;;;;5067871;28;20070;-38
2022/03/12 03:58:14;;;;;;;9.05;3.38;;;26.60;89.90;;;;;;5067471;28;20017;-37
2022/03/12 04:00:54;;;;;;;9.60;2.95;;;26.60;90.00;;;;;;5067950;28;20019;-39
2022/03/12 04:03:21;;;;;;;11.93;2.80;;;26.60;89.80;;;;;;5067354;28;20076;-36
2022/03/12 04:05:47;;;;;;;10.43;2.75;;;26.60;89.80;;;;;;5067611;28;20049;-37
2022/03/12 04:08:14;;;;;;;6.85;2.60;;;26.60;89.80;;;;;;5067397;28;20039;-36
2022/03/12 04:10:41;;;;;;;10.10;2.50;;;26.60;89.90;;;;;;5067803;28;20045;-42
2022/03/12 04:13:19;;;;;;;6.20;2.60;;;26.60;89.90;;;;;;5067653;28;20048;-42
2022/03/12 04:15:47;;;;;;;8.15;2.78;;;26.60;89.80;;;;;;5049461;28;20037;-41
2022/03/12 04:18:18;;;;;;;7.60;2.60;;;26.60;89.80;;;;;;5067380;28;20012;-41
2022/03/12 04:20:47;;;;;;;11.50;2.55;;;26.60;89.80;;;;;;5067294;28;20056;-44
2022/03/12 04:23:21;;;;;;;8.40;2.33;;;26.60;89.70;;;;;;5066949;28;20247;-40
2022/03/12 04:25:48;;;;;;;10.52;3.08;;;26.60;89.80;;;;;;5066965;28;20061;-40
2022/03/12 04:28:15;;;;;;;13.27;2.20;;;26.50;89.60;;;;;;5066910;28;20084;-38
2022/03/12 04:30:42;;;;;;;8.95;2.10;;;26.50;89.60;;;;;;5067220;28;20055;-41
2022/03/12 04:33:10;;;;;;;5.53;2.00;;;26.50;89.70;;;;;;5049013;28;20056;-40
2022/03/12 04:35:38;;;;;;;13.63;2.50;;;26.50;89.60;;;;;;5067094;28;20221;-40
2022/03/12 04:38:08;;;;;;;11.20;2.45;;;26.50;89.60;;;;;;5048984;28;20217;-39
2022/03/12 04:40:36;;;;;;;9.30;2.38;;;26.50;89.60;;;;;;5067094;28;20088;-39
2022/03/12 04:43:06;;;;;;;8.90;2.08;;;26.50;89.60;;;;;;5066590;28;20037;-39
2022/03/12 04:45:34;;;;;;;6.88;2.35;;;26.50;89.60;;;;;;5066359;28;20052;-40
2022/03/12 04:48:01;;;;;;;9.65;2.42;;;26.50;89.60;;;;;;5066785;28;20088;-41
2022/03/12 04:50:28;;;;;;;12.25;2.50;;;26.50;89.60;;;;;;5066760;28;20108;-41
2022/03/12 04:52:58;;;;;;;11.60;2.33;;;26.50;89.70;;;;;;5066500;28;20020;-39
2022/03/12 04:55:27;;;;;;;7.72;2.38;;;26.40;89.60;;;;;;5066887;28;20297;-44
2022/03/12 04:57:54;;;;;;;10.95;2.17;;;26.40;89.50;;;;;;5066333;28;20024;-38
2022/03/12 05:00:27;;;;;;;12.73;2.42;;;26.40;89.50;;;;;;5066678;28;20036;-43
2022/03/12 05:03:15;;;;;;;9.32;2.45;;;26.40;89.50;;;;;;5065989;28;20037;-41
2022/03/12 05:05:44;;;;;;;9.70;2.40;;;26.50;89.30;;;;;;5066048;28;20338;-39
2022/03/12 05:08:16;;;;;;;9.27;2.25;;;26.40;89.20;;;;;;5066207;28;20221;-42
2022/03/12 05:10:51;;;;;;;5.63;1.88;;;26.40;88.90;;;;;;5066232;28;20051;-39
2022/03/12 05:13:23;;;;;;;7.15;2.20;;;26.50;89.10;;;;;;5066116;28;20025;-40
2022/03/12 05:15:55;;;;;;;10.35;2.53;;;26.40;88.60;;;;;;5066442;28;20102;-40
2022/03/12 05:18:23;;;;;;;6.13;2.08;;;26.40;88.40;;;;;;5066104;28;20108;-43
2022/03/12 05:20:51;;;;;;;9.95;2.83;;;26.40;88.30;;;;;;5066562;28;20088;-41
2022/03/12 05:23:19;;;;;;;9.15;2.20;;;26.40;88.20;;;;;;5065958;28;20025;-39
2022/03/12 05:25:48;;;;;;;8.18;2.30;;;26.40;88.30;;;;;;5065933;28;20033;-38
2022/03/12 05:28:17;;;;;;;10.68;2.30;;;26.40;88.40;;;;;;5048078;28;20032;-39
2022/03/12 05:30:46;;;;;;;6.65;2.50;;;26.40;88.40;;;;;;5066012;28;20036;-37
2022/03/12 05:33:16;;;;;;;8.90;2.58;;;26.40;88.40;;;;;;5065758;28;20331;-40
2022/03/12 05:35:44;;;;;;;6.72;2.60;;;26.40;88.50;;;;;;5066042;28;20036;-41
2022/03/12 05:38:12;;;;;;;6.70;2.22;;;26.50;88.60;;;;;;5065701;28;20021;-42
2022/03/12 05:40:40;;;;;;;5.97;2.28;;;26.40;88.20;;;;;;5066072;28;20040;-44
2022/03/12 05:43:10;;;;;;;9.27;2.30;;;26.40;88.30;;;;;;5065485;28;20033;-43
2022/03/12 05:45:38;;;;;;;11.15;2.42;;;26.40;88.30;;;;;;5065910;28;20082;-39
2022/03/12 05:48:09;;;;;;;8.00;2.40;;;26.50;88.20;;;;;;5065570;28;20055;-42
2022/03/12 05:50:37;;;;;;;7.90;2.40;;;26.40;87.90;;;;;;5065678;28;20085;-41
2022/03/12 05:53:05;;;;;;;8.13;2.08;;;26.40;87.90;;;;;;5065426;28;20031;-40
2022/03/12 05:55:39;;;;;;;8.93;2.30;;;26.40;87.60;;;;;;5065644;28;20021;-40
2022/03/12 05:58:06;;;;;;;10.45;2.22;;;26.40;87.40;;;;;;5065350;28;20444;-40
2022/03/12 06:00:33;;;;;;;11.05;2.58;;;26.50;87.50;;;;;;5065659;28;20021;-39
2022/03/12 06:03:01;;;;;;;8.70;2.83;;;26.40;87.20;;;;;;5047311;28;20033;-49
2022/03/12 06:05:29;;;;;;;6.68;2.50;;;26.40;86.80;;;;;;5065180;28;20104;-49
2022/03/12 06:07:56;;;;;;;14.55;2.88;;;26.40;87.50;;;;;;5064929;28;20049;-41
2022/03/12 06:10:28;;;;;;;5.80;2.42;;;26.40;86.80;;;;;;5064876;28;20060;-43
2022/03/12 06:12:56;;;;;;;8.07;2.70;;;26.30;86.70;;;;;;5065055;28;20028;-44
2022/03/12 06:15:27;;;;;;;5.95;2.30;;;26.30;86.50;;;;;;5064079;28;20025;-42
2022/03/12 06:17:54;;;;;;;4.88;2.60;;;26.40;86.70;;;;;;5064740;28;20032;-41
2022/03/12 06:20:23;;;;;;;7.60;2.65;;;26.30;86.90;;;;;;5065023;28;20027;-45
2022/03/12 06:22:51;;;;;;;9.48;2.70;;;26.30;87.00;;;;;;5064675;28;20052;-39
2022/03/12 06:25:19;;;;;;;13.65;2.92;;;26.40;87.10;;;;;;5064801;28;20037;-40
2022/03/12 06:27:53;;;;;;;7.75;2.50;;;26.40;87.10;;;;;;5064703;28;20087;-43
2022/03/12 06:30:25;;;;;;;10.90;2.80;;;26.40;87.20;;;;;;5064756;28;20037;-39
2022/03/12 06:32:55;;;;;;;9.35;2.90;;;26.30;87.20;;;;;;5064451;28;20274;-39
2022/03/12 06:35:22;;;;;;;13.80;2.80;;;26.30;87.00;;;;;;5064834;28;20028;-39
2022/03/12 06:37:49;;;;;;;7.30;2.63;;;26.30;87.20;;;;;;5064402;28;20033;-42
2022/03/12 06:40:16;;;;;;;7.40;2.90;;;26.30;87.30;;;;;;5064580;28;20096;-39
2022/03/12 06:42:49;;;;;;;4.55;2.42;;;26.30;87.40;;;;;;5064471;28;20037;-39
2022/03/12 06:45:16;;;;;;;4.50;2.33;;;26.30;87.00;;;;;;5064329;28;20036;-39
2022/03/12 06:47:44;;;;;;;7.88;2.72;;;26.30;86.90;;;;;;5064509;28;20029;-40
2022/03/12 06:50:15;;;;;;;7.07;2.60;;;26.30;86.90;;;;;;5064361;28;20033;-40
2022/03/12 06:52:43;;;;;;;8.48;2.40;;;26.30;86.70;;;;;;5063968;28;20037;-38
2022/03/12 06:55:10;;;;;;;13.68;2.47;;;26.30;86.40;;;;;;5064483;28;20375;-46
2022/03/12 06:57:38;;;;;;;10.95;2.70;;;26.30;86.30;;;;;;5064190;28;20246;-40
2022/03/12 07:00:07;;;;;;;6.32;2.53;;;26.30;86.10;;;;;;5064069;28;20198;-39
2022/03/12 07:02:34;;;;;;;9.25;2.65;;;26.30;86.10;;;;;;5064021;28;20032;-42
2022/03/12 07:05:01;;;;;;;12.00;2.60;;;26.30;86.00;;;;;;5064173;28;20052;-39
2022/03/12 07:07:27;;;;;;;8.93;2.60;;;26.30;86.20;;;;;;5063692;28;20052;-39
2022/03/12 07:09:54;;;;;;;8.05;2.60;;;26.30;86.30;;;;;;5064099;28;20220;-48
2022/03/12 07:12:20;;;;;;;7.63;2.75;;;26.30;86.10;;;;;;5063904;28;20064;-40
2022/03/12 07:14:47;;;;;;;6.88;2.63;;;26.30;86.10;;;;;;5063901;28;20020;-39
2022/03/12 07:17:13;;;;;;;5.40;2.38;;;26.30;86.00;;;;;;5063942;28;20038;-39
2022/03/12 07:19:40;;;;;;;9.93;2.33;;;26.30;86.00;;;;;;5063924;28;20317;-39
2022/03/12 07:22:07;;;;;;;9.27;2.67;;;26.30;85.90;;;;;;5063806;28;20362;-39
2022/03/12 07:24:35;;;;;;;5.60;2.80;;;26.30;85.90;;;;;;5064094;28;20103;-40
2022/03/12 07:27:01;;;;;;;6.75;2.67;;;26.30;85.80;;;;;;5063340;28;20017;-42
2022/03/12 07:29:31;;;;;;;9.45;2.70;;;26.30;85.70;;;;;;5063581;28;20047;-43
2022/03/12 07:31:57;;;;;;;10.02;2.58;;;26.30;85.70;;;;;;5063691;28;20063;-41
2022/03/12 07:34:24;;;;;;;7.32;2.38;;;26.30;85.60;;;;;;5063988;28;20025;-41
2022/03/12 07:36:51;;;;;;;5.50;2.42;;;26.30;85.30;;;;;;5063496;28;20276;-44
2022/03/12 07:39:17;;;;;;;10.35;2.75;;;26.30;85.20;;;;;;5063563;28;20080;-39
2022/03/12 07:41:44;;;;;;;6.75;2.60;;;26.30;85.30;;;;;;5063707;28;20048;-42
2022/03/12 07:44:11;;;;;;;10.48;2.50;;;26.30;85.30;;;;;;5063356;28;20025;-41
2022/03/12 07:46:38;;;;;;;6.65;2.13;;;26.30;85.40;;;;;;5063668;28;20033;-49
2022/03/12 07:49:04;;;;;;;3.85;2.40;;;26.30;85.40;;;;;;5063536;28;20040;-40
2022/03/12 07:51:33;;;;;;;8.23;2.60;;;26.30;85.50;;;;;;5063902;28;20024;-43
2022/03/12 07:54:00;;;;;;;6.38;2.20;;;26.30;85.60;;;;;;5063453;28;20071;-40
2022/03/12 07:56:27;;;;;;;5.22;2.25;;;26.30;85.50;;;;;;5063380;28;20037;-41
2022/03/12 07:58:58;;;;;;;4.50;2.28;;;26.30;85.30;;;;;;5063420;28;20017;-41
2022/03/12 08:01:24;;;;;;;9.32;2.67;;;26.30;85.20;;;;;;5063942;28;20053;-41
2022/03/12 08:03:51;;;;;;;7.00;2.17;;;26.30;85.20;;;;;;5063450;28;20017;-41
2022/03/12 08:06:18;;;;;;;5.57;2.60;;;26.30;85.10;;;;;;5063366;28;20049;-41
2022/03/12 08:08:45;;;;;;;7.82;2.33;;;26.30;85.10;;;;;;5063543;28;20089;-41
2022/03/12 08:11:31;;;;;;;9.27;2.35;;;26.30;85.00;;;;;;5063732;28;20123;-39
2022/03/12 08:14:05;;;;;;;8.77;2.33;;;26.30;85.10;;;;;;5063199;28;20032;-38
2022/03/12 08:16:33;;;;;;;4.80;2.42;;;26.30;85.00;;;;;;5063893;28;20068;-44
2022/03/12 08:19:05;;;;;;;6.40;2.67;;;26.30;84.90;;;;;;5063190;28;20037;-41
2022/03/12 08:21:32;;;;;;;5.40;2.22;;;26.30;85.40;;;;;;5063742;28;20359;-41
2022/03/12 08:24:01;;;;;;;6.25;2.42;;;26.30;84.70;;;;;;5063231;28;20033;-40
2022/03/12 08:26:29;;;;;;;9.32;2.28;;;26.30;84.70;;;;;;5063708;28;20086;-38
2022/03/12 08:28:56;;;;;;;8.23;2.67;;;26.30;84.20;;;;;;5063255;28;20060;-38
2022/03/12 08:31:23;;;;;;;5.88;2.55;;;26.30;84.40;;;;;;5063640;28;20033;-39
2022/03/12 08:33:50;;;;;;;4.35;2.13;;;26.30;84.30;;;;;;5063233;28;20063;-40
2022/03/12 08:36:17;;;;;;;10.80;2.70;;;26.30;84.30;;;;;;5063503;28;20036;-41
2022/03/12 08:38:43;;;;;;;5.57;2.55;;;26.30;84.20;;;;;;5063926;28;20025;-40
2022/03/12 08:41:11;;;;;;;6.10;2.15;;;26.30;84.20;;;;;;5066561;28;20033;-40
2022/03/12 08:43:38;;;;;;;7.97;2.55;;;26.30;84.10;;;;;;5066633;28;20336;-40
2022/03/12 08:46:07;;;;;;;6.72;2.55;;;26.30;84.10;;;;;;5067061;28;20053;-39
2022/03/12 08:48:35;;;;;;;5.85;2.22;;;26.40;84.00;;;;;;5066463;28;20071;-45
2022/03/12 08:51:03;;;;;;;6.50;2.30;;;26.30;84.10;;;;;;5066823;28;20255;-39
2022/03/12 08:53:29;;;;;;;11.10;2.35;;;26.30;84.20;;;;;;5066336;28;20332;-39
2022/03/12 08:55:57;;;;;;;9.55;2.67;;;26.30;84.00;;;;;;5066746;28;20032;-38
2022/03/12 08:58:23;;;;;;;4.85;2.25;;;26.40;84.20;;;;;;5066240;28;20270;-40
2022/03/12 09:00:52;;;;;;;6.10;2.35;;;26.30;84.20;;;;;;5066618;28;20021;-39
2022/03/12 09:03:22;;;;;;;7.35;2.28;;;26.30;84.20;;;;;;5066170;28;20045;-43
2022/03/12 09:05:50;;;;;;;6.60;2.53;;;26.30;83.90;;;;;;5066415;28;20289;-39
2022/03/12 09:08:17;;;;;;;6.40;2.30;;;26.30;83.70;;;;;;5066115;28;20041;-42
2022/03/12 09:10:45;;;;;;;12.15;2.58;;;26.30;83.70;;;;;;5066509;28;20099;-39
2022/03/12 09:13:13;;;;;;;4.93;2.20;;;26.30;83.60;;;;;;5066038;28;20028;-40
2022/03/12 09:15:41;;;;;;;6.55;2.15;;;26.30;83.70;;;;;;5066184;28;20060;-42
2022/03/12 09:18:09;;;;;;;7.00;2.47;;;26.40;83.80;;;;;;5066006;28;20252;-39
2022/03/12 09:20:43;;;;;;;6.80;2.50;;;26.30;83.60;;;;;;5066298;28;20060;-38
2022/03/12 09:23:10;;;;;;;5.53;2.58;;;26.30;83.50;;;;;;5065772;28;20313;-38
2022/03/12 09:25:37;;;;;;;6.95;2.60;;;26.40;83.50;;;;;;5066236;28;20063;-39
2022/03/12 09:28:04;;;;;;;8.95;2.70;;;26.30;82.70;;;;;;5065931;28;20351;-38
2022/03/12 09:30:30;;;;;;;7.10;2.42;;;26.30;82.90;;;;;;5065866;28;20051;-39
2022/03/12 09:32:57;;;;;;;7.88;2.47;;;26.30;82.80;;;;;;5065724;28;20040;-38
2022/03/12 09:35:24;;;;;;;4.03;2.33;;;26.30;82.70;;;;;;5065959;28;20029;-38
2022/03/12 09:37:50;;;;;;;5.88;2.72;;;26.30;82.80;;;;;;5065483;28;20325;-38
2022/03/12 09:40:17;;;;;;;8.65;2.70;;;26.30;83.00;;;;;;5065826;28;20070;-39
2022/03/12 09:42:44;;;;;;;8.05;2.67;;;26.30;83.20;;;;;;5065538;28;20217;-38
2022/03/12 09:45:13;;;;;;;4.82;2.20;;;26.30;83.20;;;;;;5065522;28;20041;-39
2022/03/12 09:47:41;;;;;;;5.47;2.50;;;26.30;83.20;;;;;;5065382;28;20321;-39
2022/03/12 09:50:09;;;;;;;5.45;2.40;;;26.30;83.20;;;;;;5065384;28;20029;-38
2022/03/12 09:52:36;;;;;;;5.90;2.55;;;26.30;83.10;;;;;;5065214;28;20067;-39
2022/03/12 09:55:04;;;;;;;7.53;2.72;;;26.30;82.80;;;;;;5065336;28;20024;-45
2022/03/12 09:57:30;;;;;;;6.03;3.00;;;26.30;83.00;;;;;;5065344;28;20025;-38
2022/03/12 09:59:57;;;;;;;7.13;2.90;;;26.30;83.00;;;;;;5065170;28;20025;-39
2022/03/12 10:02:24;;;;;;;7.18;3.00;;;26.30;83.10;;;;;;5065116;28;20031;-41
2022/03/12 10:04:50;;;;;;;7.63;2.72;;;26.30;83.70;;;;;;5065114;28;20028;-40
2022/03/12 10:07:18;;;;;;;9.25;3.10;;;26.30;83.80;;;;;;5064893;28;20041;-38
2022/03/12 10:09:44;;;;;;;5.82;2.70;;;26.30;83.30;;;;;;5065052;28;20032;-41
2022/03/12 10:12:11;;;;;;;10.30;2.95;;;26.30;83.20;;;;;;5064957;28;20352;-38
2022/03/12 10:14:38;;;;;;;6.22;2.70;;;26.30;83.10;;;;;;5064900;28;20035;-39
2022/03/12 10:17:05;;;;;;;7.20;2.60;;;26.30;83.00;;;;;;5064821;28;20059;-42
2022/03/12 10:19:34;;;;;;;7.38;3.00;;;26.30;83.10;;;;;;5064827;28;20305;-37
2022/03/12 10:22:01;;;;;;;7.82;2.88;;;26.30;82.90;;;;;;5064561;28;20033;-38
2022/03/12 10:24:28;;;;;;;9.68;3.22;;;26.30;83.00;;;;;;5064707;28;20104;-37
2022/03/12 10:26:55;;;;;;;6.80;3.03;;;26.30;82.90;;;;;;5064776;28;20024;-37
2022/03/12 10:29:21;;;;;;;8.95;3.60;;;26.30;82.90;;;;;;5064564;28;20313;-40
2022/03/12 10:31:48;;;;;;;7.70;3.03;;;26.30;82.90;;;;;;5064790;28;20029;-40
2022/03/12 10:34:23;;;;;;;7.65;3.30;;;26.30;83.10;;;;;;5064521;28;20040;-38
2022/03/12 10:36:55;;;;;;;8.15;3.20;;;26.30;83.10;;;;;;5064466;28;20029;-39
2022/03/12 10:39:32;;;;;;;8.77;3.00;;;26.30;82.90;;;;;;5064446;28;20028;-39
2022/03/12 10:42:07;;;;;;;6.25;2.95;;;26.20;82.80;;;;;;5064247;28;20025;-38
2022/03/12 10:44:39;;;;;;;8.10;2.97;;;26.30;83.00;;;;;;5064569;28;20083;-39
2022/03/12 10:47:25;;;;;;;7.47;2.97;;;26.20;83.00;;;;;;5064598;28;20091;-42
2022/03/12 10:50:04;;;;;;;8.38;3.20;;;26.30;83.00;;;;;;5064465;28;20037;-38
2022/03/12 10:52:32;;;;;;;3.53;2.90;;;26.30;83.20;;;;;;5064123;28;20036;-43
2022/03/12 10:54:59;;;;;;;10.40;3.35;;;26.30;83.20;;;;;;5064303;28;20029;-39
2022/03/12 10:57:27;;;;;;;8.02;3.75;;;26.20;83.00;;;;;;5064181;28;20025;-39
2022/03/12 10:59:54;;;;;;;8.60;3.30;;;26.30;83.00;;;;;;5064305;28;20048;-39
2022/03/12 11:02:22;;;;;;;6.60;3.40;;;26.20;82.80;;;;;;5063414;28;20067;-38
2022/03/12 11:04:48;;;;;;;5.82;3.28;;;26.20;82.00;;;;;;5064048;28;20025;-39
2022/03/12 11:07:24;;;;;;;6.63;3.40;;;26.20;81.90;;;;;;5063737;28;20045;-38
2022/03/12 11:09:52;;;;;;;11.38;3.60;;;26.20;82.20;;;;;;5063943;28;20024;-37
2022/03/12 11:12:30;;;;;;;8.85;3.35;;;26.10;82.30;;;;;;5063834;28;20029;-37
2022/03/12 11:15:15;;;;;;;6.50;3.20;;;26.10;82.70;;;;;;5046192;28;20021;-37
2022/03/12 11:17:50;;;;;;;10.45;2.90;;;26.10;82.70;;;;;;5063791;28;20057;-43
2022/03/12 11:20:23;;;;;;;7.43;2.92;;;26.10;82.60;;;;;;5064073;28;20092;-41
2022/03/12 11:23:09;;;;;;;4.57;3.13;;;26.10;82.40;;;;;;5063842;28;20104;-47
2022/03/12 11:25:50;;;;;;;10.60;3.70;;;26.10;82.10;;;;;;5064109;28;20351;-39
2022/03/12 11:28:20;;;;;;;12.10;4.90;;;26.10;82.50;;;;;;5063556;28;20044;-38
2022/03/12 11:30:47;;;;;;;10.65;5.03;;;26.10;82.90;;;;;;5064073;28;20220;-39
2022/03/12 11:33:15;;;;;;;9.40;6.18;;;26.10;83.10;;;;;;5063601;28;20045;-39
2022/03/12 11:35:45;;;;;;;14.23;6.50;;;26.10;83.50;;;;;;5063915;28;20025;-40
2022/03/12 11:38:22;;;;;;;10.48;7.60;;;26.10;83.80;;;;;;5063677;28;20029;-38
2022/03/12 11:40:53;;;;;;;11.23;7.68;;;26.20;84.20;;;;;;5064043;28;20036;-37
2022/03/12 11:43:26;;;;;;;12.43;8.00;;;26.20;84.40;;;;;;5063697;28;20083;-37
2022/03/12 11:45:59;;;;;;;;;;;26.20;84.50;;;;;;5064721;28;20037;-38
2022/03/12 11:48:30;;;;;;;13.38;8.25;;;26.20;84.60;;;;;;5063626;28;19905;-38
2022/03/12 11:51:00;;;;;;;11.20;8.18;;;26.20;84.90;;;;;;5064566;28;20029;-38
2022/03/12 11:53:27;;;;;;;11.23;8.48;;;26.20;85.20;;;;;;5063614;28;20084;-38
2022/03/12 11:55:54;;;;;;;13.70;8.68;;;26.20;85.30;;;;;;5063929;28;20059;-46
2022/03/12 11:58:20;;;;;;;12.02;8.48;;;26.20;85.50;;;;;;5063518;28;20032;-39
2022/03/12 12:00:48;;;;;;;11.02;9.00;;;26.20;85.60;;;;;;5063745;28;20050;-38
2022/03/12 12:03:17;;;;;;;15.70;9.07;;;26.20;86.00;;;;;;5063244;28;20029;-39
2022/03/12 12:05:45;;;;;;;12.93;8.90;;;26.20;85.80;;;;;;5063610;28;20096;-38
2022/03/12 12:08:15;;;;;;;9.65;8.75;;;26.20;85.90;;;;;;5063284;28;20037;-42
2022/03/12 12:10:43;;;;;;;12.93;9.35;;;26.20;85.90;;;;;;5063894;28;20040;-39
2022/03/12 12:13:15;;;;;;;11.23;9.40;;;26.30;86.20;;;;;;5064882;28;20096;-40
2022/03/12 12:15:45;;;;;;;15.45;9.38;;;26.30;86.30;;;;;;5067436;28;20032;-41
2022/03/12 12:18:13;;;;;;;16.30;10.02;;;26.30;86.50;;;;;;5067128;28;20024;-40
2022/03/12 12:20:41;;;;;;;12.68;9.70;;;26.30;86.60;;;;;;5067393;28;20302;-40
2022/03/12 12:23:18;;;;;;;11.90;9.93;;;26.30;86.90;;;;;;5066963;28;20040;-38
2022/03/12 12:25:46;;;;;;;13.27;9.75;;;26.30;86.90;;;;;;5067331;28;20318;-38
2022/03/12 12:28:23;;;;;;;12.93;9.70;;;26.30;86.90;;;;;;5066886;28;20020;-40
2022/03/12 12:30:53;;;;;;;13.57;9.55;;;26.30;87.30;;;;;;5067213;28;20040;-39
2022/03/12 12:33:24;;;;;;;11.02;9.98;;;26.30;87.50;;;;;;5066768;28;20032;-38
2022/03/12 12:36:15;;;;;;;11.75;9.32;;;26.30;87.30;;;;;;5067057;28;20033;-37
2022/03/12 12:39:08;;;;;;;11.10;9.52;;;26.30;87.60;;;;;;5066713;28;20029;-38
2022/03/12 12:41:58;;;;;;;10.70;9.60;;;26.30;87.50;;;;;;5066770;28;20040;-38
2022/03/12 12:44:39;;;;;;;10.90;9.15;;;26.30;88.10;;;;;;5066653;28;20123;-40
2022/03/12 12:47:10;;;;;;;11.97;9.33;;;26.30;88.20;;;;;;5066951;28;20094;-36
2022/03/12 12:49:40;;;;;;;13.45;9.68;;;26.30;88.00;;;;;;5066686;28;20399;-37
2022/03/12 12:52:30;;;;;;;12.50;9.82;;;26.30;88.70;;;;;;5066531;28;20037;-38
2022/03/12 12:55:05;;;;;;;13.77;9.98;;;26.30;88.90;;;;;;5066605;28;20041;-38